sensor_id;sensor_type;location;lat;lon;timestamp;pressure;altitude;pressure_sealevel;temperature;humidity
33731;BME280;22931;48.636;9.000;2023-07-13T08:53:16;96228.28;;;24.46;42.85
33731;BME280;22931;48.636;9.000;2023-07-13T08:58:25;96226.47;;;24.59;42.76
33731;BME280;22931;48.636;9.000;2023-07-13T09:03:44;96220.38;;;24.75;41.76
33731;BME280;22931;48.636;9.000;2023-07-13T09:09:06;96236.59;;;24.91;41.53
33731;BME280;22931;48.636;9.000;2023-07-13T09:14:42;96223.91;;;25.08;40.70
33731;BME280;22931;48.636;9.000;2023-07-13T09:19:59;96229.38;;;25.20;40.70
33731;BME280;22931;48.636;9.000;2023-07-13T09:25:38;96219.78;;;25.35;39.86
33731;BME280;22931;48.636;9.000;2023-07-13T09:31:00;96219.78;;;25.35;39.92
33731;BME280;22931;48.636;9.000;2023-07-13T09:36:18;96215.00;;;25.43;39.62
33731;BME280;22931;48.636;9.000;2023-07-13T09:41:35;96220.13;;;25.53;39.78
33731;BME280;22931;48.636;9.000;2023-07-13T09:46:51;96219.88;;;25.64;40.24
33731;BME280;22931;48.636;9.000;2023-07-13T09:52:04;96215.47;;;25.70;39.79
33731;BME280;22931;48.636;9.000;2023-07-13T09:57:17;96230.91;;;25.70;39.86
33731;BME280;22931;48.636;9.000;2023-07-13T10:02:31;96225.34;;;25.61;39.55
33731;BME280;22931;48.636;9.000;2023-07-13T10:07:42;96216.25;;;25.54;39.62
33731;BME280;22931;48.636;9.000;2023-07-13T10:12:54;96223.59;;;25.54;39.59
33731;BME280;22931;48.636;9.000;2023-07-13T10:18:02;96225.63;;;25.50;40.12
33731;BME280;22931;48.636;9.000;2023-07-13T10:23:17;96213.25;;;25.52;38.88
33731;BME280;22931;48.636;9.000;2023-07-13T10:28:36;96216.66;;;25.53;38.80
33731;BME280;22931;48.636;9.000;2023-07-13T10:33:45;96227.13;;;25.51;39.75
33731;BME280;22931;48.636;9.000;2023-07-13T10:38:55;96221.56;;;25.58;39.68
33731;BME280;22931;48.636;9.000;2023-07-13T10:44:17;96223.00;;;25.63;39.55
33731;BME280;22931;48.636;9.000;2023-07-13T10:49:29;96225.59;;;25.66;39.06
33731;BME280;22931;48.636;9.000;2023-07-13T10:54:38;96227.84;;;25.68;39.21
33731;BME280;22931;48.636;9.000;2023-07-13T11:00:14;96215.53;;;25.83;39.56
33731;BME280;22931;48.636;9.000;2023-07-13T11:05:28;96208.13;;;25.87;38.34
33731;BME280;22931;48.636;9.000;2023-07-13T11:10:47;96208.91;;;26.00;37.18
33731;BME280;22931;48.636;9.000;2023-07-13T11:16:00;96198.63;;;26.11;38.01
33731;BME280;22931;48.636;9.000;2023-07-13T11:21:15;96199.66;;;26.30;36.36
33731;BME280;22931;48.636;9.000;2023-07-13T11:26:39;96184.66;;;26.41;36.60
33731;BME280;22931;48.636;9.000;2023-07-13T11:31:54;96189.13;;;26.48;37.00
33731;BME280;22931;48.636;9.000;2023-07-13T11:37:03;96190.00;;;26.57;37.55
33731;BME280;22931;48.636;9.000;2023-07-13T11:42:13;96188.34;;;26.72;37.56
33731;BME280;22931;48.636;9.000;2023-07-13T11:47:24;96175.34;;;26.96;36.93
33731;BME280;22931;48.636;9.000;2023-07-13T11:52:35;96185.16;;;27.15;36.65
33731;BME280;22931;48.636;9.000;2023-07-13T11:57:47;96186.63;;;27.29;36.37
33731;BME280;22931;48.636;9.000;2023-07-13T12:03:01;96192.03;;;27.29;35.47
33731;BME280;22931;48.636;9.000;2023-07-13T12:08:11;96192.56;;;27.24;35.28
33731;BME280;22931;48.636;9.000;2023-07-13T12:13:27;96189.69;;;27.18;35.72
33731;BME280;22931;48.636;9.000;2023-07-13T12:18:42;96187.84;;;27.28;35.64
33731;BME280;22931;48.636;9.000;2023-07-13T12:23:54;96188.56;;;27.41;35.23
33731;BME280;22931;48.636;9.000;2023-07-13T12:29:05;96181.06;;;27.58;34.63
33731;BME280;22931;48.636;9.000;2023-07-13T12:34:17;96194.78;;;27.63;34.65
33731;BME280;22931;48.636;9.000;2023-07-13T12:39:30;96185.50;;;27.64;34.01
33731;BME280;22931;48.636;9.000;2023-07-13T12:44:41;96193.28;;;27.62;33.79
33731;BME280;22931;48.636;9.000;2023-07-13T12:49:54;96191.66;;;27.65;33.77
33731;BME280;22931;48.636;9.000;2023-07-13T12:55:07;96199.34;;;27.66;33.05
33731;BME280;22931;48.636;9.000;2023-07-13T13:00:25;96194.56;;;27.70;33.09
33731;BME280;22931;48.636;9.000;2023-07-13T13:05:40;96192.81;;;27.76;33.41
33731;BME280;22931;48.636;9.000;2023-07-13T13:10:48;96176.28;;;27.74;33.24
33731;BME280;22931;48.636;9.000;2023-07-13T13:15:56;96172.91;;;27.70;33.79
33731;BME280;22931;48.636;9.000;2023-07-13T13:21:09;96183.47;;;27.77;33.03
33731;BME280;22931;48.636;9.000;2023-07-13T13:26:19;96177.19;;;27.80;33.37
33731;BME280;22931;48.636;9.000;2023-07-13T13:31:27;96176.88;;;27.78;32.80
33731;BME280;22931;48.636;9.000;2023-07-13T13:36:38;96183.13;;;27.88;32.98
33731;BME280;22931;48.636;9.000;2023-07-13T13:41:46;96171.84;;;28.02;33.50
33731;BME280;22931;48.636;9.000;2023-07-13T13:46:56;96185.31;;;28.14;32.83
33731;BME280;22931;48.636;9.000;2023-07-13T13:52:09;96168.88;;;28.09;32.01
33731;BME280;22931;48.636;9.000;2023-07-13T13:57:21;96174.66;;;27.98;33.09
33731;BME280;22931;48.636;9.000;2023-07-13T14:02:29;96182.69;;;27.89;33.00
33731;BME280;22931;48.636;9.000;2023-07-13T14:07:41;96175.00;;;27.88;32.46
33731;BME280;22931;48.636;9.000;2023-07-13T14:12:51;96164.06;;;27.91;33.28
33731;BME280;22931;48.636;9.000;2023-07-13T14:18:00;96167.72;;;27.97;32.93
33731;BME280;22931;48.636;9.000;2023-07-13T14:23:15;96170.19;;;28.04;32.87
33731;BME280;22931;48.636;9.000;2023-07-13T14:28:25;96182.09;;;28.07;33.19
33731;BME280;22931;48.636;9.000;2023-07-13T14:33:35;96179.53;;;28.03;33.03
33731;BME280;22931;48.636;9.000;2023-07-13T14:38:46;96170.88;;;27.96;33.18
33731;BME280;22931;48.636;9.000;2023-07-13T14:43:54;96158.22;;;27.93;32.99
33731;BME280;22931;48.636;9.000;2023-07-13T14:49:05;96184.41;;;27.96;32.63
33731;BME280;22931;48.636;9.000;2023-07-13T14:54:16;96176.59;;;27.98;33.19
33731;BME280;22931;48.636;9.000;2023-07-13T14:59:24;96186.03;;;27.93;32.96
33731;BME280;22931;48.636;9.000;2023-07-13T15:04:32;96186.03;;;27.93;33.18
33731;BME280;22931;48.636;9.000;2023-07-13T15:09:43;96188.91;;;27.99;33.37
33731;BME280;22931;48.636;9.000;2023-07-13T15:15:01;96174.13;;;28.03;33.28
33731;BME280;22931;48.636;9.000;2023-07-13T15:20:21;96181.03;;;28.04;32.52
33731;BME280;22931;48.636;9.000;2023-07-13T15:25:41;96185.06;;;28.00;33.49
33731;BME280;22931;48.636;9.000;2023-07-13T15:30:49;96185.38;;;27.89;32.91
33731;BME280;22931;48.636;9.000;2023-07-13T15:35:57;96187.09;;;27.74;33.36
33731;BME280;22931;48.636;9.000;2023-07-13T15:41:16;96188.91;;;27.77;33.48
33731;BME280;22931;48.636;9.000;2023-07-13T15:46:27;96185.72;;;27.91;33.73
33731;BME280;22931;48.636;9.000;2023-07-13T15:51:36;96182.97;;;27.70;32.89
33731;BME280;22931;48.636;9.000;2023-07-13T15:56:51;96187.31;;;27.67;33.15
33731;BME280;22931;48.636;9.000;2023-07-13T16:02:00;96190.25;;;27.60;33.56
33731;BME280;22931;48.636;9.000;2023-07-13T16:07:13;96185.09;;;27.53;33.39
33731;BME280;22931;48.636;9.000;2023-07-13T16:12:25;96186.84;;;27.47;33.28
33731;BME280;22931;48.636;9.000;2023-07-13T16:17:34;96181.69;;;27.40;33.33
33731;BME280;22931;48.636;9.000;2023-07-13T16:22:45;96186.19;;;27.43;33.57
33731;BME280;22931;48.636;9.000;2023-07-13T16:27:57;96191.59;;;27.43;32.93
33731;BME280;22931;48.636;9.000;2023-07-13T16:33:06;96197.13;;;27.39;33.57
33731;BME280;22931;48.636;9.000;2023-07-13T16:38:16;96198.72;;;27.37;33.62
33731;BME280;22931;48.636;9.000;2023-07-13T16:43:27;96197.19;;;27.36;33.10
33731;BME280;22931;48.636;9.000;2023-07-13T16:48:36;96202.09;;;27.28;32.94
33731;BME280;22931;48.636;9.000;2023-07-13T16:53:44;96210.72;;;27.23;33.57
33731;BME280;22931;48.636;9.000;2023-07-13T16:58:54;96201.56;;;27.21;33.43
33731;BME280;22931;48.636;9.000;2023-07-13T17:04:08;96206.63;;;27.19;33.45
33731;BME280;22931;48.636;9.000;2023-07-13T17:09:16;96211.19;;;27.09;33.63
33731;BME280;22931;48.636;9.000;2023-07-13T17:14:27;96208.94;;;27.08;33.21
33731;BME280;22931;48.636;9.000;2023-07-13T17:19:39;96202.88;;;27.04;33.79
33731;BME280;22931;48.636;9.000;2023-07-13T17:24:47;96198.03;;;26.99;33.74
33731;BME280;22931;48.636;9.000;2023-07-13T17:30:03;96201.59;;;26.96;32.96
33731;BME280;22931;48.636;9.000;2023-07-13T17:35:19;96203.97;;;26.94;33.42
33731;BME280;22931;48.636;9.000;2023-07-13T17:40:30;96211.09;;;26.88;33.30
33731;BME280;22931;48.636;9.000;2023-07-13T17:45:41;96213.56;;;26.82;33.52
33731;BME280;22931;48.636;9.000;2023-07-13T17:50:49;96219.28;;;26.71;33.66
33731;BME280;22931;48.636;9.000;2023-07-13T17:56:04;96217.63;;;26.61;33.55
33731;BME280;22931;48.636;9.000;2023-07-13T18:01:18;96221.38;;;26.51;33.33
33731;BME280;22931;48.636;9.000;2023-07-13T18:06:31;96215.31;;;26.35;33.93
33731;BME280;22931;48.636;9.000;2023-07-13T18:11:40;96221.88;;;26.21;34.01
33731;BME280;22931;48.636;9.000;2023-07-13T18:16:54;96217.91;;;26.09;34.13
33731;BME280;22931;48.636;9.000;2023-07-13T18:22:13;96228.31;;;25.95;34.14
33731;BME280;22931;48.636;9.000;2023-07-13T18:27:23;96232.22;;;25.78;34.50
33731;BME280;22931;48.636;9.000;2023-07-13T18:32:35;96232.91;;;25.66;34.85
33731;BME280;22931;48.636;9.000;2023-07-13T18:37:45;96240.25;;;25.49;35.15
33731;BME280;22931;48.636;9.000;2023-07-13T18:42:54;96246.75;;;25.35;35.08
33731;BME280;22931;48.636;9.000;2023-07-13T18:48:10;96241.59;;;25.25;35.96
33731;BME280;22931;48.636;9.000;2023-07-13T18:53:19;96248.91;;;25.08;35.93
33731;BME280;22931;48.636;9.000;2023-07-13T18:58:27;96249.97;;;24.94;36.23
33731;BME280;22931;48.636;9.000;2023-07-13T19:03:38;96264.00;;;24.86;36.13
33731;BME280;22931;48.636;9.000;2023-07-13T19:08:46;96258.56;;;24.70;36.52
33731;BME280;22931;48.636;9.000;2023-07-13T19:13:55;96261.50;;;24.56;36.63
33731;BME280;22931;48.636;9.000;2023-07-13T19:19:11;96264.00;;;24.47;36.87
33731;BME280;22931;48.636;9.000;2023-07-13T19:24:22;96278.09;;;24.35;36.79
33731;BME280;22931;48.636;9.000;2023-07-13T19:29:32;96289.66;;;24.32;36.87
33731;BME280;22931;48.636;9.000;2023-07-13T19:34:45;96293.56;;;24.31;37.44
33731;BME280;22931;48.636;9.000;2023-07-13T19:39:54;96301.75;;;24.23;36.86
33731;BME280;22931;48.636;9.000;2023-07-13T19:45:07;96299.53;;;24.18;37.41
33731;BME280;22931;48.636;9.000;2023-07-13T19:50:24;96310.06;;;24.09;37.47
33731;BME280;22931;48.636;9.000;2023-07-13T19:55:33;96311.00;;;23.99;37.22
33731;BME280;22931;48.636;9.000;2023-07-13T20:00:41;96322.22;;;23.94;37.01
33731;BME280;22931;48.636;9.000;2023-07-13T20:05:52;96326.94;;;23.87;37.48
33731;BME280;22931;48.636;9.000;2023-07-13T20:11:01;96338.28;;;23.75;37.48
33731;BME280;22931;48.636;9.000;2023-07-13T20:16:12;96342.19;;;23.70;37.93
33731;BME280;22931;48.636;9.000;2023-07-13T20:21:25;96351.88;;;23.64;37.64
33731;BME280;22931;48.636;9.000;2023-07-13T20:26:36;96345.47;;;23.58;38.44
33731;BME280;22931;48.636;9.000;2023-07-13T20:31:46;96345.53;;;23.51;38.85
33731;BME280;22931;48.636;9.000;2023-07-13T20:36:57;96342.31;;;23.33;39.39
33731;BME280;22931;48.636;9.000;2023-07-13T20:42:25;96347.69;;;23.06;38.97
33731;BME280;22931;48.636;9.000;2023-07-13T20:47:35;96351.38;;;22.85;39.24
33731;BME280;22931;48.636;9.000;2023-07-13T20:52:52;96351.97;;;22.70;40.27
33731;BME280;22931;48.636;9.000;2023-07-13T20:58:02;96355.94;;;22.51;40.59
33731;BME280;22931;48.636;9.000;2023-07-13T21:03:16;96347.69;;;22.35;41.45
33731;BME280;22931;48.636;9.000;2023-07-13T21:08:31;96347.56;;;22.12;41.06
33731;BME280;22931;48.636;9.000;2023-07-13T21:13:39;96349.25;;;21.88;40.93
33731;BME280;22931;48.636;9.000;2023-07-13T21:18:50;96342.88;;;21.71;41.30
33731;BME280;22931;48.636;9.000;2023-07-13T21:24:00;96343.75;;;21.54;41.83
33731;BME280;22931;48.636;9.000;2023-07-13T21:29:08;96351.16;;;21.36;42.03
33731;BME280;22931;48.636;9.000;2023-07-13T21:34:20;96357.34;;;21.23;43.02
33731;BME280;22931;48.636;9.000;2023-07-13T21:39:33;96350.94;;;21.10;43.50
33731;BME280;22931;48.636;9.000;2023-07-13T21:44:41;96361.69;;;20.92;42.80
33731;BME280;22931;48.636;9.000;2023-07-13T21:49:49;96365.94;;;20.75;43.31
33731;BME280;22931;48.636;9.000;2023-07-13T21:54:59;96366.34;;;20.67;43.66
33731;BME280;22931;48.636;9.000;2023-07-13T22:00:17;96366.38;;;20.63;43.99
33731;BME280;22931;48.636;9.000;2023-07-13T22:05:26;96364.47;;;20.53;43.74
33731;BME280;22931;48.636;9.000;2023-07-13T22:10:38;96359.91;;;20.50;43.44
33731;BME280;22931;48.636;9.000;2023-07-13T22:15:47;96362.59;;;20.43;43.34
33731;BME280;22931;48.636;9.000;2023-07-13T22:20:55;96379.41;;;20.33;43.92
33731;BME280;22931;48.636;9.000;2023-07-13T22:26:15;96375.63;;;20.23;45.09
33731;BME280;22931;48.636;9.000;2023-07-13T22:31:27;96365.69;;;20.06;43.74
33731;BME280;22931;48.636;9.000;2023-07-13T22:36:35;96371.78;;;19.96;43.94
33731;BME280;22931;48.636;9.000;2023-07-13T22:53:36;96372.91;;;19.67;45.22
33731;BME280;22931;48.636;9.000;2023-07-13T22:58:44;96370.63;;;19.51;44.66
33731;BME280;22931;48.636;9.000;2023-07-13T23:03:54;96369.84;;;19.37;45.59
33731;BME280;22931;48.636;9.000;2023-07-13T23:09:05;96369.00;;;19.26;45.91
33731;BME280;22931;48.636;9.000;2023-07-13T23:14:16;96367.84;;;19.16;45.55
33731;BME280;22931;48.636;9.000;2023-07-13T23:19:28;96378.50;;;19.09;46.20
33731;BME280;22931;48.636;9.000;2023-07-13T23:24:39;96360.13;;;18.93;46.12
33731;BME280;22931;48.636;9.000;2023-07-13T23:29:47;96354.38;;;18.77;45.80
33731;BME280;22931;48.636;9.000;2023-07-13T23:34:54;96351.66;;;18.63;46.60
33731;BME280;22931;48.636;9.000;2023-07-13T23:40:11;96363.81;;;18.61;47.96
33731;BME280;22931;48.636;9.000;2023-07-13T23:45:22;96361.47;;;18.49;46.96
33731;BME280;22931;48.636;9.000;2023-07-13T23:50:33;96356.09;;;18.41;46.65
33731;BME280;22931;48.636;9.000;2023-07-13T23:55:43;96336.63;;;18.34;47.59
